Ramey, Pennsylvania
Current Conditions -  °F | °C
As of 8:54 AM on Monday 26 Jan 2015 (Local Time) from KFIG Reporting Station
Light Snow Light Snow  
Wind Chill:   Ceiling: 1300
Heat Index: 16°   Visibility: 0.75mi
Dew Point: 13°   Wind: 10mph
Humidity: 88%   Direction: 60°ENE
Pressure: 29.77"   Gusts: NA
Location:  40.8°N, 78.4°W
Report Text: KFIG 261354Z AUTO 06009KT 3/4SM -SN BR VV013 M09/M11 A2977 RMK AO2 SLP103 P0002 T10891106
Loading
Personal Weather Stations






























Interactive Weather Map New forecast layout! Learn more

10-Day Weather Forecast

Advertisements
Track Severe Weather on mobile